Time;durP1;ratioP1;P1;durP2;ratioP2;P2;SDS_P1;SDS_P2;PMS_P1;PMS_P2;Temp;Humidity;BMP_temperature;BMP_pressure;BME280_temperature;BME280_humidity;BME280_pressure;Samples;Min_cycle;Max_cycle;Signal;HPM_P1;HPM_P2
2022/10/06 00:02:21;;;;;;;12.93;2.10;;;12.70;99.90;;;;;;5038477;28;20040;-70
2022/10/06 00:04:47;;;;;;;10.63;1.83;;;12.70;99.90;;;;;;5055346;28;20076;-71
2022/10/06 00:07:14;;;;;;;8.88;1.85;;;12.70;99.90;;;;;;5038943;28;20582;-71
2022/10/06 00:09:40;;;;;;;9.20;1.58;;;12.60;99.90;;;;;;5053716;28;20045;-71
2022/10/06 00:12:07;;;;;;;9.60;1.70;;;12.70;99.90;;;;;;5057992;28;20055;-70
2022/10/06 00:14:32;;;;;;;17.83;2.47;;;12.70;99.90;;;;;;5056512;28;20135;-71
2022/10/06 00:16:58;;;;;;;9.82;2.08;;;12.70;99.90;;;;;;5040947;28;20070;-71
2022/10/06 00:19:24;;;;;;;16.00;2.15;;;12.70;99.90;;;;;;5057619;28;20036;-70
2022/10/06 00:21:49;;;;;;;9.52;2.15;;;12.70;99.90;;;;;;5042967;28;20704;-71
2022/10/06 00:24:15;;;;;;;14.48;2.83;;;12.70;99.90;;;;;;5058777;28;20052;-70
2022/10/06 00:26:41;;;;;;;11.27;2.13;;;12.70;99.90;;;;;;5045303;28;20036;-70
2022/10/06 00:29:06;;;;;;;9.95;2.20;;;12.70;99.90;;;;;;5056756;28;20044;-70
2022/10/06 00:31:33;;;;;;;10.88;2.30;;;12.70;99.90;;;;;;5041094;28;20040;-71
2022/10/06 00:33:59;;;;;;;10.25;1.95;;;12.80;99.90;;;;;;5026846;28;20182;-70
2022/10/06 00:36:24;;;;;;;12.38;2.20;;;12.60;99.90;;;;;;5048306;28;20548;-71
2022/10/06 00:38:50;;;;;;;13.07;2.05;;;12.60;99.90;;;;;;5054919;28;20053;-70
2022/10/06 00:41:17;;;;;;;11.05;2.25;;;12.50;99.90;;;;;;5060415;28;20044;-71
2022/10/06 00:43:47;;;;;;;20.15;2.88;;;12.60;99.90;;;;;;5058340;28;20037;-71
2022/10/06 00:46:35;;;;;;;16.77;2.20;;;12.50;99.90;;;;;;5035109;28;20510;-71
2022/10/06 00:49:06;;;;;;;11.93;2.25;;;12.50;99.90;;;;;;5056910;28;20045;-70
2022/10/06 00:51:35;;;;;;;11.93;2.10;;;12.50;99.90;;;;;;5058632;28;20067;-70
2022/10/06 00:54:01;;;;;;;8.05;1.98;;;12.40;99.90;;;;;;5056640;28;20044;-70
2022/10/06 00:56:27;;;;;;;9.23;2.05;;;12.50;99.90;;;;;;5049299;28;20609;-70
2022/10/06 00:58:52;;;;;;;12.30;2.20;;;12.50;99.90;;;;;;5039608;28;20095;-70
2022/10/06 01:01:18;;;;;;;13.10;2.28;;;12.40;99.90;;;;;;5061351;28;20040;-70
2022/10/06 01:03:58;;;;;;;10.45;2.08;;;12.30;99.90;;;;;;5058820;28;20079;-70
2022/10/06 01:06:23;;;;;;;12.45;2.03;;;12.30;99.90;;;;;;5032518;28;20046;-70
2022/10/06 01:08:49;;;;;;;15.02;2.30;;;12.30;99.90;;;;;;5054789;28;20064;-70
2022/10/06 01:11:15;;;;;;;12.65;1.98;;;12.30;99.90;;;;;;5062071;28;20066;-70
2022/10/06 01:13:43;;;;;;;15.23;2.30;;;12.30;99.90;;;;;;5056735;28;20462;-70
2022/10/06 01:16:11;;;;;;;21.27;2.95;;;12.30;99.90;;;;;;5056222;28;20047;-71
2022/10/06 01:18:41;;;;;;;12.35;2.10;;;12.30;99.90;;;;;;5050514;28;20605;-70
2022/10/06 01:21:24;;;;;;;14.55;2.17;;;12.30;99.90;;;;;;5056588;28;20490;-70
2022/10/06 01:23:49;;;;;;;10.68;2.20;;;12.30;99.90;;;;;;5058167;28;20072;-70
2022/10/06 01:26:16;;;;;;;14.05;2.60;;;12.20;99.90;;;;;;5048712;28;20041;-70
2022/10/06 01:28:42;;;;;;;12.73;2.17;;;12.20;99.90;;;;;;5051465;28;20440;-70
2022/10/06 01:31:08;;;;;;;14.30;2.50;;;12.30;99.90;;;;;;5061004;28;20095;-70
2022/10/06 01:33:34;;;;;;;12.55;2.22;;;12.20;99.90;;;;;;5055475;28;20054;-70
2022/10/06 01:36:00;;;;;;;13.25;2.30;;;12.20;99.90;;;;;;5057017;28;20052;-70
2022/10/06 01:38:25;;;;;;;10.95;2.40;;;12.30;99.90;;;;;;5048477;28;20097;-70
2022/10/06 01:40:52;;;;;;;15.00;3.10;;;12.30;99.90;;;;;;5065194;28;20052;-70
2022/10/06 01:43:18;;;;;;;14.63;2.65;;;12.20;99.90;;;;;;5064358;28;20053;-70
2022/10/06 01:45:43;;;;;;;13.38;2.53;;;12.20;99.90;;;;;;5045160;28;20467;-70
2022/10/06 01:48:09;;;;;;;14.25;2.50;;;12.20;99.90;;;;;;5038952;28;20044;-71
2022/10/06 01:50:35;;;;;;;13.07;2.50;;;12.20;99.90;;;;;;5057673;28;20124;-70
2022/10/06 01:53:00;;;;;;;13.57;2.15;;;12.20;99.90;;;;;;5041965;28;20052;-70
2022/10/06 01:55:26;;;;;;;12.73;2.60;;;12.10;99.90;;;;;;5047522;28;20158;-70
2022/10/06 01:57:52;;;;;;;15.85;3.05;;;12.10;99.90;;;;;;5038860;28;20055;-69
2022/10/06 02:00:18;;;;;;;14.25;3.15;;;12.20;99.90;;;;;;5061489;28;20044;-71
2022/10/06 02:02:44;;;;;;;16.83;2.80;;;12.20;99.90;;;;;;5063150;28;20045;-70
2022/10/06 02:05:10;;;;;;;11.75;2.45;;;12.20;99.90;;;;;;5055935;28;20060;-71
2022/10/06 02:07:36;;;;;;;16.95;3.10;;;12.10;99.90;;;;;;5047488;28;20422;-71
2022/10/06 02:10:04;;;;;;;12.45;2.47;;;12.10;99.90;;;;;;5059370;28;20052;-70
2022/10/06 02:12:30;;;;;;;13.13;2.47;;;12.20;99.90;;;;;;5041981;28;21106;-69
2022/10/06 02:14:57;;;;;;;15.80;3.00;;;12.10;99.90;;;;;;5042350;28;20048;-70
2022/10/06 02:17:23;;;;;;;18.80;3.17;;;12.20;99.90;;;;;;5046013;28;20052;-70
2022/10/06 02:19:48;;;;;;;16.08;2.60;;;12.10;99.90;;;;;;5044237;28;20052;-70
2022/10/06 02:22:14;;;;;;;13.70;2.53;;;12.20;99.90;;;;;;5046515;28;20044;-70
2022/10/06 02:24:40;;;;;;;15.05;2.90;;;12.10;99.90;;;;;;5061399;28;20097;-70
2022/10/06 02:27:06;;;;;;;14.80;2.50;;;12.10;99.90;;;;;;5046655;28;20044;-70
2022/10/06 02:29:33;;;;;;;12.98;2.67;;;12.20;99.90;;;;;;5062384;28;20514;-70
2022/10/06 02:31:58;;;;;;;14.07;2.92;;;12.10;99.90;;;;;;5061637;28;20135;-70
2022/10/06 02:34:25;;;;;;;14.82;2.83;;;12.00;99.90;;;;;;5059187;28;20127;-70
2022/10/06 02:36:50;;;;;;;14.48;2.47;;;11.90;99.90;;;;;;5046330;28;21041;-70
2022/10/06 02:39:16;;;;;;;16.20;2.80;;;11.70;99.90;;;;;;5060594;28;20041;-70
2022/10/06 02:41:42;;;;;;;16.48;2.90;;;11.80;99.90;;;;;;5063430;28;20052;-69
2022/10/06 02:44:07;;;;;;;14.80;2.47;;;11.80;99.90;;;;;;5060701;28;20549;-69
2022/10/06 02:46:33;;;;;;;15.07;2.83;;;11.80;99.90;;;;;;5047995;28;20502;-70
2022/10/06 02:48:59;;;;;;;15.98;2.67;;;11.70;99.90;;;;;;5057123;28;20164;-70
2022/10/06 02:51:24;;;;;;;14.65;3.15;;;11.80;99.90;;;;;;5061786;28;20060;-70
2022/10/06 02:53:50;;;;;;;16.20;3.17;;;12.00;99.90;;;;;;5062449;28;20044;-69
2022/10/06 02:56:22;;;;;;;10.93;2.25;;;11.90;99.90;;;;;;5051290;28;20225;-70
2022/10/06 02:58:48;;;;;;;;;;;11.80;99.90;;;;;;5058680;28;20044;-69
2022/10/06 03:01:20;;;;;;;13.55;2.70;;;11.80;99.90;;;;;;5046867;28;19932;-69
2022/10/06 03:03:45;;;;;;;14.88;2.90;;;11.90;99.90;;;;;;5059312;28;20072;-70
2022/10/06 03:06:21;;;;;;;17.80;2.75;;;11.90;99.90;;;;;;5051478;28;20037;-70
2022/10/06 03:08:57;;;;;;;16.73;2.90;;;11.90;99.90;;;;;;5057978;28;20047;-69
2022/10/06 03:11:34;;;;;;;17.08;2.88;;;11.90;99.90;;;;;;5063070;28;20048;-69
2022/10/06 03:14:00;;;;;;;12.25;2.33;;;11.90;99.90;;;;;;5056524;28;20055;-70
2022/10/06 03:16:38;;;;;;;14.20;2.40;;;11.80;99.90;;;;;;5046208;28;20504;-70
2022/10/06 03:19:05;;;;;;;13.68;2.65;;;11.80;99.90;;;;;;5059105;28;20052;-69
2022/10/06 03:21:33;;;;;;;16.75;2.25;;;11.80;99.90;;;;;;5058357;28;20132;-70
2022/10/06 03:23:59;;;;;;;11.57;2.40;;;11.80;99.90;;;;;;5059463;28;20048;-70
2022/10/06 03:26:34;;;;;;;13.80;2.80;;;11.90;99.90;;;;;;5047315;28;20563;-69
2022/10/06 03:29:00;;;;;;;16.88;2.88;;;11.70;99.90;;;;;;5059689;28;20051;-70
2022/10/06 03:31:26;;;;;;;14.30;2.42;;;11.80;99.90;;;;;;5060022;28;20049;-70
2022/10/06 03:33:55;;;;;;;12.35;2.70;;;11.80;99.90;;;;;;5057791;28;20087;-70
2022/10/06 03:36:23;;;;;;;16.00;2.67;;;11.80;99.90;;;;;;5050194;28;20521;-70
2022/10/06 03:38:48;;;;;;;15.30;2.63;;;11.50;99.90;;;;;;5041649;28;20135;-70
2022/10/06 03:41:19;;;;;;;8.90;2.55;;;11.80;99.90;;;;;;5064298;28;20119;-70
2022/10/06 03:43:47;;;;;;;14.30;2.50;;;11.70;99.90;;;;;;5053299;28;20040;-70
2022/10/06 03:46:15;;;;;;;16.20;2.60;;;11.80;99.90;;;;;;5047606;28;20083;-70
2022/10/06 03:48:41;;;;;;;15.57;2.67;;;11.70;99.90;;;;;;5050988;28;20449;-70
2022/10/06 03:51:11;;;;;;;16.08;3.13;;;11.60;99.90;;;;;;5058916;28;20934;-70
2022/10/06 03:53:37;;;;;;;17.23;3.55;;;11.70;99.90;;;;;;5063179;28;20051;-70
2022/10/06 03:56:09;;;;;;;16.23;2.67;;;11.90;99.90;;;;;;5055310;28;20040;-69
2022/10/06 03:58:37;;;;;;;18.20;3.00;;;12.00;99.90;;;;;;5048918;28;20045;-70
2022/10/06 04:01:24;;;;;;;10.45;2.80;;;12.00;99.90;;;;;;5057914;28;20048;-69
2022/10/06 04:03:49;;;;;;;14.88;2.75;;;11.90;99.90;;;;;;5052771;28;20466;-70
2022/10/06 04:06:18;;;;;;;16.00;2.60;;;12.00;99.90;;;;;;5049106;28;20083;-70
2022/10/06 04:08:45;;;;;;;11.90;2.40;;;11.80;99.90;;;;;;5050169;28;20040;-70
2022/10/06 04:11:20;;;;;;;12.88;2.60;;;11.80;99.90;;;;;;5059044;28;20129;-70
2022/10/06 04:13:47;;;;;;;18.48;2.63;;;11.80;99.90;;;;;;5053827;28;20044;-70
2022/10/06 04:16:21;;;;;;;15.02;2.78;;;11.70;99.90;;;;;;5051414;28;20044;-71
2022/10/06 04:18:55;;;;;;;13.88;2.53;;;11.70;99.90;;;;;;5054283;28;20419;-70
2022/10/06 04:21:22;;;;;;;15.23;2.83;;;11.60;99.90;;;;;;5063183;28;20036;-69
2022/10/06 04:23:48;;;;;;;12.15;2.83;;;11.60;99.90;;;;;;5058578;28;20393;-70
2022/10/06 04:26:17;;;;;;;10.20;2.40;;;11.70;99.90;;;;;;5050231;28;20040;-70
2022/10/06 04:28:44;;;;;;;13.85;2.60;;;12.00;99.90;;;;;;5056656;28;20048;-70
2022/10/06 04:31:16;;;;;;;15.70;2.10;;;11.60;99.90;;;;;;5047297;28;20739;-70
2022/10/06 04:33:43;;;;;;;16.90;2.53;;;11.60;99.90;;;;;;5060942;28;20095;-70
2022/10/06 04:36:12;;;;;;;12.88;2.25;;;11.60;99.90;;;;;;5052325;28;20094;-71
2022/10/06 04:38:38;;;;;;;18.63;2.90;;;11.60;99.90;;;;;;5052819;28;20068;-69
2022/10/06 04:41:15;;;;;;;10.35;2.42;;;11.60;99.90;;;;;;5061866;28;20454;-69
2022/10/06 04:43:41;;;;;;;15.00;3.08;;;11.60;99.90;;;;;;5057736;28;20141;-70
2022/10/06 04:46:09;;;;;;;20.55;2.92;;;11.60;99.90;;;;;;5055656;28;20504;-70
2022/10/06 04:48:34;;;;;;;9.50;2.60;;;11.50;99.90;;;;;;5049642;28;20048;-70
2022/10/06 04:51:05;;;;;;;17.13;2.50;;;11.50;99.90;;;;;;5062201;28;20044;-70
2022/10/06 04:53:32;;;;;;;17.33;2.42;;;11.60;99.90;;;;;;5059559;28;20452;-70
2022/10/06 04:55:59;;;;;;;12.93;2.65;;;11.50;99.90;;;;;;5058322;28;20044;-70
2022/10/06 04:58:26;;;;;;;13.10;2.72;;;11.60;99.90;;;;;;5045139;28;20090;-70
2022/10/06 05:00:51;;;;;;;19.23;2.47;;;11.50;99.90;;;;;;5058072;28;20052;-70
2022/10/06 05:03:17;;;;;;;12.13;2.40;;;11.50;99.90;;;;;;5058043;28;20089;-70
2022/10/06 05:05:43;;;;;;;11.15;2.25;;;11.50;99.90;;;;;;5059785;28;20115;-70
2022/10/06 05:08:08;;;;;;;15.02;2.63;;;11.50;99.90;;;;;;5041625;28;20040;-70
2022/10/06 05:10:34;;;;;;;13.05;2.40;;;11.50;99.90;;;;;;5042780;28;20051;-70
2022/10/06 05:13:02;;;;;;;15.55;2.38;;;11.50;99.90;;;;;;5059876;28;20690;-70
2022/10/06 05:15:28;;;;;;;17.83;2.67;;;11.50;99.90;;;;;;5062233;28;20155;-70
2022/10/06 05:17:54;;;;;;;14.50;2.60;;;11.50;99.90;;;;;;5044647;28;20401;-70
2022/10/06 05:20:21;;;;;;;17.63;2.50;;;11.40;99.90;;;;;;5061555;28;20474;-70
2022/10/06 05:22:47;;;;;;;11.90;2.58;;;11.30;99.90;;;;;;5041066;28;20043;-70
2022/10/06 05:25:13;;;;;;;10.15;2.38;;;11.30;99.90;;;;;;5046711;28;20044;-70
2022/10/06 05:27:39;;;;;;;39.60;15.50;;;11.30;99.90;;;;;;5044711;28;20056;-70
2022/10/06 05:30:05;;;;;;;24.67;8.90;;;11.20;99.90;;;;;;5058959;28;20504;-70
2022/10/06 05:32:31;;;;;;;35.72;16.60;;;11.00;99.90;;;;;;5059476;28;20055;-70
2022/10/06 05:34:56;;;;;;;20.83;6.82;;;10.90;99.90;;;;;;5061621;28;20768;-70
2022/10/06 05:37:24;;;;;;;17.55;2.45;;;10.80;99.90;;;;;;5029390;28;20044;-70
2022/10/06 05:39:49;;;;;;;16.02;4.30;;;10.70;99.90;;;;;;5064338;28;20549;-70
2022/10/06 05:42:15;;;;;;;12.35;3.13;;;10.60;99.90;;;;;;5030532;28;20041;-71
2022/10/06 05:44:41;;;;;;;15.80;2.55;;;10.50;99.90;;;;;;5046361;28;20135;-70
2022/10/06 05:47:07;;;;;;;18.98;4.88;;;10.40;99.90;;;;;;5027343;28;20102;-70
2022/10/06 05:49:32;;;;;;;14.60;3.97;;;10.30;99.90;;;;;;5058027;28;20141;-70
2022/10/06 05:51:58;;;;;;;14.15;2.75;;;10.40;99.90;;;;;;5055338;28;20048;-70
2022/10/06 05:54:23;;;;;;;15.18;2.30;;;10.40;99.90;;;;;;5057091;28;20064;-70
2022/10/06 05:56:49;;;;;;;16.08;2.92;;;10.30;99.90;;;;;;5042220;28;20060;-70
2022/10/06 05:59:15;;;;;;;29.45;12.60;;;10.30;99.90;;;;;;5056292;28;20040;-69
2022/10/06 06:01:42;;;;;;;14.98;2.58;;;10.30;99.90;;;;;;5045554;28;20056;-70
2022/10/06 06:04:10;;;;;;;17.60;2.67;;;10.20;99.90;;;;;;5055454;28;20044;-70
2022/10/06 06:06:41;;;;;;;12.55;2.47;;;10.20;99.90;;;;;;5050491;28;20052;-70
2022/10/06 06:09:12;;;;;;;13.10;2.55;;;10.30;99.90;;;;;;5058169;28;20087;-70
2022/10/06 06:11:40;;;;;;;13.00;2.05;;;10.20;99.90;;;;;;5044306;28;20678;-70
2022/10/06 06:14:15;;;;;;;16.70;2.50;;;10.20;99.90;;;;;;5057877;28;20040;-69
2022/10/06 06:16:41;;;;;;;14.43;2.65;;;10.30;99.90;;;;;;5046590;28;20053;-70
2022/10/06 06:19:08;;;;;;;13.02;2.45;;;10.40;99.90;;;;;;5044046;28;20052;-70
2022/10/06 06:21:34;;;;;;;18.00;2.67;;;10.40;99.90;;;;;;5063586;28;20044;-70
2022/10/06 06:24:01;;;;;;;11.68;2.40;;;10.40;99.90;;;;;;5042845;28;20105;-70
2022/10/06 06:26:29;;;;;;;12.30;2.25;;;10.50;99.90;;;;;;5032066;28;20457;-70
2022/10/06 06:29:01;;;;;;;14.73;2.38;;;10.60;99.90;;;;;;5058310;28;20128;-70
2022/10/06 06:31:30;;;;;;;16.90;2.95;;;10.60;99.90;;;;;;5061942;28;20055;-70
2022/10/06 06:33:57;;;;;;;15.63;2.50;;;10.70;99.90;;;;;;5060835;28;20560;-70
2022/10/06 06:36:27;;;;;;;14.35;3.13;;;10.70;99.90;;;;;;5050968;28;20059;-70
2022/10/06 06:38:57;;;;;;;15.27;2.47;;;10.80;99.90;;;;;;5057904;28;20044;-70
2022/10/06 06:41:36;;;;;;;22.33;5.03;;;10.90;99.90;;;;;;5059497;28;20521;-70
2022/10/06 06:44:03;;;;;;;14.65;2.22;;;10.90;99.90;;;;;;5044919;28;20045;-70
2022/10/06 06:46:30;;;;;;;17.17;2.53;;;10.90;99.90;;;;;;5048125;28;20050;-70
2022/10/06 06:49:01;;;;;;;17.02;3.80;;;10.90;99.90;;;;;;5059270;28;20051;-70
2022/10/06 06:51:26;;;;;;;18.90;5.82;;;10.80;99.90;;;;;;5043399;28;20114;-70
2022/10/06 06:53:52;;;;;;;20.75;2.72;;;10.90;99.90;;;;;;5026996;28;20048;-70
2022/10/06 06:56:22;;;;;;;12.20;2.30;;;11.00;99.90;;;;;;5048330;28;20113;-70
2022/10/06 06:58:48;;;;;;;12.13;2.53;;;11.00;99.90;;;;;;5057546;28;20121;-70
2022/10/06 07:01:16;;;;;;;15.07;2.63;;;11.10;99.90;;;;;;5053028;28;20045;-70
2022/10/06 07:03:44;;;;;;;15.50;2.60;;;11.10;99.90;;;;;;5075829;28;20052;-69
2022/10/06 07:06:15;;;;;;;25.75;3.28;;;11.20;99.90;;;;;;5052725;28;20136;-70
2022/10/06 07:08:43;;;;;;;17.95;2.80;;;11.20;99.90;;;;;;5034456;28;20055;-70
2022/10/06 07:11:17;;;;;;;17.17;2.80;;;11.20;99.90;;;;;;5059843;28;20040;-69
2022/10/06 07:13:44;;;;;;;15.35;2.75;;;11.30;99.90;;;;;;5058381;28;20629;-70
2022/10/06 07:27:27;;;;;;;17.23;2.40;;;11.70;99.90;;;;;;5022356;28;20499;-70
2022/10/06 07:29:53;;;;;;;18.13;3.03;;;11.80;99.90;;;;;;5041189;28;20101;-70
2022/10/06 07:32:29;;;;;;;14.07;2.75;;;12.00;99.90;;;;;;5040424;28;20135;-70
2022/10/06 07:34:57;;;;;;;16.13;2.55;;;11.90;99.90;;;;;;5037863;28;20088;-70
2022/10/06 07:37:23;;;;;;;13.07;2.40;;;11.90;99.90;;;;;;5024905;28;20044;-70
2022/10/06 07:39:48;;;;;;;13.60;2.60;;;12.10;99.90;;;;;;5041183;28;20061;-70
2022/10/06 07:42:16;;;;;;;13.55;2.92;;;12.00;99.90;;;;;;5041620;28;20140;-70
2022/10/06 07:44:43;;;;;;;17.55;3.22;;;12.30;99.90;;;;;;5041952;28;20036;-70
2022/10/06 07:47:09;;;;;;;16.77;2.55;;;12.50;99.90;;;;;;5024921;28;21318;-70
2022/10/06 07:49:35;;;;;;;15.70;3.13;;;12.70;99.90;;;;;;5040202;28;20053;-70
2022/10/06 07:52:01;;;;;;;16.67;3.10;;;12.90;99.90;;;;;;5022822;28;20130;-69
2022/10/06 07:54:27;;;;;;;13.82;2.88;;;13.10;99.90;;;;;;5040944;28;20470;-70
2022/10/06 07:56:54;;;;;;;16.25;2.95;;;13.30;99.90;;;;;;5029349;28;20167;-70
2022/10/06 07:59:20;;;;;;;15.90;2.58;;;13.20;99.90;;;;;;5040339;28;20052;-70
2022/10/06 08:01:46;;;;;;;11.85;2.60;;;13.10;99.90;;;;;;5024078;28;20050;-70
2022/10/06 08:04:12;;;;;;;18.23;2.58;;;13.10;99.90;;;;;;5040823;28;21817;-70
2022/10/06 08:06:38;;;;;;;15.43;2.95;;;13.00;99.90;;;;;;5026437;28;20063;-70
2022/10/06 08:09:04;;;;;;;14.35;2.95;;;13.00;99.90;;;;;;5036745;28;20063;-70
2022/10/06 08:11:31;;;;;;;10.73;2.75;;;13.00;99.90;;;;;;5040799;28;20064;-70
2022/10/06 08:13:57;;;;;;;12.00;2.40;;;13.00;99.90;;;;;;5040987;28;20468;-70
2022/10/06 08:16:28;;;;;;;18.65;3.42;;;13.20;99.90;;;;;;5028141;28;20097;-70
2022/10/06 08:18:57;;;;;;;12.57;2.95;;;13.10;99.90;;;;;;5037652;28;20114;-71
2022/10/06 08:21:26;;;;;;;15.48;2.60;;;13.20;99.90;;;;;;5042632;28;20052;-70
2022/10/06 08:23:52;;;;;;;17.02;2.63;;;13.30;99.90;;;;;;5039801;28;20522;-70
2022/10/06 08:26:20;;;;;;;18.17;3.20;;;13.40;99.90;;;;;;5029339;28;20048;-70
2022/10/06 08:28:51;;;;;;;14.00;3.03;;;13.40;99.90;;;;;;5035604;28;20064;-70
2022/10/06 08:31:20;;;;;;;16.00;2.50;;;13.40;99.90;;;;;;5039650;28;20056;-71
2022/10/06 08:33:46;;;;;;;11.38;2.42;;;13.40;99.90;;;;;;5040247;28;20055;-70
2022/10/06 08:36:15;;;;;;;17.52;2.65;;;13.50;99.90;;;;;;5013240;28;20154;-70
2022/10/06 08:38:42;;;;;;;14.50;2.63;;;13.50;99.90;;;;;;5033461;28;20052;-70
2022/10/06 08:41:22;;;;;;;16.75;3.25;;;13.40;99.90;;;;;;5039795;28;20040;-71
2022/10/06 08:43:56;;;;;;;12.75;2.72;;;13.60;99.90;;;;;;5037483;28;20076;-70
2022/10/06 08:46:26;;;;;;;15.48;2.72;;;13.60;99.90;;;;;;5026757;28;20056;-69
2022/10/06 08:48:52;;;;;;;15.15;3.38;;;13.60;99.90;;;;;;5034882;28;20097;-70
2022/10/06 08:51:34;;;;;;;17.35;2.80;;;13.70;99.90;;;;;;5038149;28;20049;-69
2022/10/06 08:54:28;;;;;;;17.65;2.70;;;13.70;99.90;;;;;;5039281;28;20554;-70
2022/10/06 08:57:09;;;;;;;11.55;2.22;;;13.80;99.90;;;;;;5026742;28;20044;-70
2022/10/06 08:59:35;;;;;;;12.90;2.55;;;13.90;99.90;;;;;;5041011;28;20052;-71
2022/10/06 09:02:05;;;;;;;14.70;2.28;;;14.00;99.90;;;;;;5041653;28;20106;-70
2022/10/06 09:04:32;;;;;;;17.50;2.65;;;14.00;99.90;;;;;;5038631;28;20036;-70
2022/10/06 09:07:11;;;;;;;13.52;2.60;;;14.10;99.90;;;;;;5023333;28;20087;-70
2022/10/06 09:09:52;;;;;;;19.58;2.55;;;14.00;99.90;;;;;;5038403;28;20048;-70
2022/10/06 09:12:29;;;;;;;14.75;2.47;;;14.00;99.90;;;;;;5038175;28;20082;-70
2022/10/06 09:15:19;;;;;;;15.60;2.40;;;14.10;99.90;;;;;;5042196;28;20462;-69
2022/10/06 09:17:53;;;;;;;9.88;2.55;;;14.20;99.90;;;;;;5026154;28;20123;-69
2022/10/06 09:20:40;;;;;;;14.25;2.40;;;14.20;99.90;;;;;;5040145;28;20056;-70
2022/10/06 09:23:13;;;;;;;12.32;2.47;;;14.20;99.90;;;;;;5019918;28;20040;-70
2022/10/06 09:25:39;;;;;;;16.90;2.83;;;14.10;99.90;;;;;;5037762;28;20098;-70
2022/10/06 09:28:11;;;;;;;15.77;2.65;;;14.00;99.90;;;;;;5006609;28;20033;-71
2022/10/06 09:30:37;;;;;;;13.23;2.60;;;14.10;99.90;;;;;;5039562;28;20052;-70
2022/10/06 09:33:04;;;;;;;9.50;2.30;;;14.20;99.90;;;;;;5022022;28;20704;-71
2022/10/06 09:35:31;;;;;;;12.60;2.85;;;14.40;99.90;;;;;;5042496;28;20612;-70
2022/10/06 09:38:04;;;;;;;14.48;2.40;;;14.30;99.90;;;;;;5025849;28;20149;-70
2022/10/06 09:40:48;;;;;;;14.73;1.98;;;14.10;99.90;;;;;;5040531;28;20051;-70
2022/10/06 09:43:27;;;;;;;11.52;2.90;;;14.10;99.90;;;;;;5041054;28;20605;-71
2022/10/06 09:45:55;;;;;;;12.43;2.42;;;14.10;99.90;;;;;;5039124;28;20057;-71
2022/10/06 09:48:23;;;;;;;12.32;2.42;;;14.10;99.90;;;;;;5023908;28;20157;-70
2022/10/06 09:51:07;;;;;;;15.30;2.22;;;14.20;99.90;;;;;;5038905;28;20164;-70
2022/10/06 09:53:34;;;;;;;14.75;2.38;;;14.40;99.90;;;;;;5035211;28;20048;-70
2022/10/06 09:56:03;;;;;;;11.20;2.08;;;14.50;99.90;;;;;;5037513;28;20330;-70
2022/10/06 09:58:36;;;;;;;11.27;2.40;;;14.70;99.90;;;;;;5024810;28;20052;-70
2022/10/06 10:01:04;;;;;;;12.57;2.35;;;15.00;99.90;;;;;;5045119;28;20057;-69
2022/10/06 10:03:50;;;;;;;11.27;2.00;;;15.10;99.90;;;;;;5025281;28;20037;-71
2022/10/06 10:06:28;;;;;;;13.80;2.42;;;15.20;99.90;;;;;;5033568;28;20056;-70
2022/10/06 10:09:20;;;;;;;12.63;2.08;;;15.20;99.90;;;;;;5026977;28;20135;-70
2022/10/06 10:14:42;;;;;;;10.68;1.75;;;15.30;99.90;;;;;;5059694;28;20561;-70
2022/10/06 10:17:31;;;;;;;9.68;2.10;;;15.30;99.90;;;;;;5015698;28;20056;-70
2022/10/06 10:19:57;;;;;;;12.98;2.03;;;15.40;99.90;;;;;;5061726;28;20059;-70
2022/10/06 10:22:32;;;;;;;11.65;2.03;;;15.40;99.90;;;;;;5045577;28;20492;-70
2022/10/06 10:25:04;;;;;;;10.73;1.85;;;15.40;99.90;;;;;;5079461;28;20040;-70
2022/10/06 10:27:53;;;;;;;10.57;1.95;;;15.40;99.90;;;;;;5046537;28;20044;-71
2022/10/06 10:30:19;;;;;;;10.65;1.92;;;15.30;99.90;;;;;;5063096;28;20056;-69
2022/10/06 10:33:14;;;;;;;8.57;1.70;;;15.10;99.90;;;;;;5057891;28;20049;-70
2022/10/06 10:35:45;;;;;;;10.13;2.25;;;15.20;99.90;;;;;;5057402;28;20048;-70
2022/10/06 10:38:25;;;;;;;7.50;1.40;;;15.10;99.90;;;;;;5046552;28;20045;-71
2022/10/06 10:40:57;;;;;;;11.40;1.77;;;15.20;99.90;;;;;;5065169;28;20462;-69
2022/10/06 10:43:49;;;;;;;8.23;1.65;;;15.20;99.90;;;;;;5062860;28;20412;-70
2022/10/06 10:46:31;;;;;;;11.48;1.77;;;15.20;99.90;;;;;;5053866;28;20041;-71
2022/10/06 10:49:19;;;;;;;13.88;2.05;;;15.20;99.90;;;;;;5059074;28;20041;-69
2022/10/06 10:52:00;;;;;;;11.02;1.80;;;15.30;99.90;;;;;;5057261;28;20131;-69
2022/10/06 10:54:38;;;;;;;15.05;2.15;;;15.50;99.90;;;;;;5057282;28;20037;-70
2022/10/06 10:57:11;;;;;;;10.40;1.95;;;15.50;99.90;;;;;;5044056;28;20414;-69
2022/10/06 10:59:59;;;;;;;8.57;1.75;;;15.50;99.90;;;;;;5057962;28;20037;-70
2022/10/06 11:02:26;;;;;;;10.55;2.17;;;15.50;99.90;;;;;;5052155;28;20495;-70
2022/10/06 11:04:59;;;;;;;13.55;1.75;;;15.60;99.90;;;;;;5042895;28;20045;-70
2022/10/06 11:07:37;;;;;;;7.03;1.63;;;15.70;99.90;;;;;;5042896;28;20048;-70
2022/10/06 11:10:21;;;;;;;10.35;1.58;;;15.50;99.90;;;;;;5048899;28;20436;-69
2022/10/06 11:13:23;;;;;;;7.50;1.80;;;15.50;99.90;;;;;;5041973;28;20045;-70
2022/10/06 11:15:59;;;;;;;11.88;1.50;;;15.50;99.90;;;;;;5042721;28;20086;-71
2022/10/06 11:18:34;;;;;;;6.47;1.40;;;15.40;99.90;;;;;;5027289;28;21030;-70
2022/10/06 11:21:31;;;;;;;10.00;1.77;;;15.50;99.90;;;;;;5042546;28;20145;-69
2022/10/06 11:24:15;;;;;;;9.63;1.65;;;15.50;99.90;;;;;;5037690;28;20064;-71
2022/10/06 11:26:56;;;;;;;7.15;1.10;;;15.50;99.90;;;;;;5025926;28;20780;-70
2022/10/06 11:29:30;;;;;;;12.55;1.60;;;15.60;99.90;;;;;;5037465;28;20071;-69
2022/10/06 11:32:09;;;;;;;6.60;1.35;;;15.60;99.90;;;;;;5041185;28;20503;-69
2022/10/06 11:34:35;;;;;;;11.20;1.50;;;15.60;99.90;;;;;;5022830;28;20499;-69
2022/10/06 11:37:44;;;;;;;10.43;1.80;;;15.60;99.90;;;;;;5026723;28;20101;-70
2022/10/06 11:40:24;;;;;;;8.45;1.58;;;15.70;99.90;;;;;;5040979;28;20045;-70
2022/10/06 11:43:04;;;;;;;9.05;1.67;;;15.60;99.90;;;;;;5042926;28;20057;-71
2022/10/06 11:45:50;;;;;;;6.82;1.33;;;15.70;99.90;;;;;;5042137;28;20101;-69
2022/10/06 11:48:29;;;;;;;7.00;1.33;;;15.60;99.90;;;;;;5023417;28;20048;-71
2022/10/06 11:51:16;;;;;;;7.72;1.50;;;15.60;99.90;;;;;;5040567;28;20068;-71
2022/10/06 11:53:43;;;;;;;8.02;1.25;;;15.70;99.90;;;;;;5039814;28;20479;-70
2022/10/06 11:56:17;;;;;;;7.70;1.65;;;15.70;99.90;;;;;;5036171;28;20137;-70
2022/10/06 11:58:55;;;;;;;9.55;1.48;;;15.60;99.90;;;;;;5034186;28;20040;-70
2022/10/06 12:01:46;;;;;;;7.20;1.40;;;15.70;99.90;;;;;;5039840;28;20053;-70
2022/10/06 12:04:14;;;;;;;6.93;1.45;;;15.90;99.90;;;;;;5030824;28;20044;-70
2022/10/06 12:06:48;;;;;;;5.75;1.30;;;15.80;99.90;;;;;;5027913;28;20040;-69
2022/10/06 12:09:24;;;;;;;9.82;1.30;;;15.90;99.90;;;;;;5039424;28;20102;-70
2022/10/06 12:11:51;;;;;;;8.90;1.52;;;16.00;99.90;;;;;;5039254;28;20064;-70
2022/10/06 12:14:38;;;;;;;9.57;1.35;;;16.10;99.90;;;;;;5038819;28;20053;-70
2022/10/06 12:17:46;;;;;;;7.95;1.10;;;16.10;99.90;;;;;;5022977;28;20036;-71
2022/10/06 12:20:35;;;;;;;15.00;1.55;;;16.10;99.90;;;;;;5000313;28;20056;-70
2022/10/06 12:23:15;;;;;;;8.40;1.13;;;16.00;99.90;;;;;;5038428;28;20072;-69
2022/10/06 12:26:19;;;;;;;8.02;1.15;;;16.10;99.90;;;;;;5038149;28;20105;-70
2022/10/06 12:29:01;;;;;;;11.43;1.33;;;16.10;99.90;;;;;;4987992;28;20525;-69
2022/10/06 12:31:38;;;;;;;10.75;1.55;;;16.00;99.90;;;;;;5039460;28;20508;-69
2022/10/06 12:34:40;;;;;;;8.07;1.38;;;16.00;99.90;;;;;;5039112;28;20131;-69
2022/10/06 12:37:34;;;;;;;10.13;1.45;;;16.00;99.90;;;;;;5026199;28;20041;-70
2022/10/06 12:40:37;;;;;;;8.43;1.17;;;16.00;99.90;;;;;;5039688;28;20056;-69
2022/10/06 12:43:31;;;;;;;6.80;1.40;;;16.10;99.90;;;;;;5038813;28;20052;-69
2022/10/06 12:45:58;;;;;;;10.68;1.30;;;15.90;99.90;;;;;;5010286;28;20584;-69
2022/10/06 12:48:38;;;;;;;5.35;1.30;;;16.00;99.90;;;;;;5021272;28;20052;-68
2022/10/06 12:51:21;;;;;;;7.30;1.30;;;15.80;99.90;;;;;;5039736;28;20132;-70
2022/10/06 12:54:01;;;;;;;8.85;1.20;;;15.80;99.90;;;;;;5037874;28;20109;-69
2022/10/06 12:56:33;;;;;;;8.05;1.00;;;15.90;99.90;;;;;;5025860;28;20552;-70
2022/10/06 12:59:20;;;;;;;4.20;1.02;;;16.00;99.90;;;;;;5035672;28;20052;-70
2022/10/06 13:01:51;;;;;;;6.93;1.70;;;15.90;99.90;;;;;;5038121;28;20059;-70
2022/10/06 13:04:39;;;;;;;6.60;1.40;;;15.90;99.90;;;;;;5039907;28;20114;-70
2022/10/06 13:07:10;;;;;;;7.18;1.30;;;15.90;99.90;;;;;;5023554;28;20040;-69
2022/10/06 13:09:36;;;;;;;6.93;1.17;;;16.00;99.90;;;;;;5037705;28;20049;-70
2022/10/06 13:12:23;;;;;;;8.43;1.40;;;15.90;99.90;;;;;;5037702;28;20055;-70
2022/10/06 13:15:27;;;;;;;9.68;1.58;;;15.80;99.90;;;;;;5037322;28;20713;-68